Time;durP1;ratioP1;P1;durP2;ratioP2;P2;SDS_P1;SDS_P2;PMS_P1;PMS_P2;Temp;Humidity;BMP_temperature;BMP_pressure;BME280_temperature;BME280_humidity;BME280_pressure;Samples;Min_cycle;Max_cycle;Signal;HPM_P1;HPM_P2
2023/04/25 00:00:39;;;;;;;9.50;5.80;;;12.90;99.90;;;;;;5035245;28;20190;-83
2023/04/25 00:03:06;;;;;;;10.23;5.93;;;12.80;99.90;;;;;;5034268;28;20173;-84
2023/04/25 00:05:32;;;;;;;10.52;5.15;;;12.80;99.90;;;;;;5017672;28;20187;-84
2023/04/25 00:07:58;;;;;;;8.32;5.22;;;12.80;99.90;;;;;;5034991;28;20650;-84
2023/04/25 00:10:23;;;;;;;14.32;7.22;;;12.70;99.90;;;;;;5035584;28;20262;-83
2023/04/25 00:12:49;;;;;;;11.43;6.72;;;12.60;99.90;;;;;;5035693;28;20259;-85
2023/04/25 00:15:15;;;;;;;15.02;5.75;;;12.60;99.90;;;;;;5034421;28;20184;-84
2023/04/25 00:17:42;;;;;;;12.77;7.50;;;12.60;99.90;;;;;;5001640;28;20620;-84
2023/04/25 00:20:10;;;;;;;9.98;5.93;;;12.60;99.90;;;;;;5033546;28;20565;-84
2023/04/25 00:22:39;;;;;;;10.70;6.28;;;12.50;99.90;;;;;;5034444;28;20188;-84
2023/04/25 00:25:06;;;;;;;11.60;5.85;;;12.40;99.90;;;;;;5033778;28;20234;-84
2023/04/25 00:27:32;;;;;;;10.65;5.95;;;12.40;99.90;;;;;;5017297;28;20216;-83
2023/04/25 00:29:58;;;;;;;8.18;5.68;;;12.30;99.90;;;;;;5035167;28;20187;-84
2023/04/25 00:32:23;;;;;;;8.57;5.80;;;12.20;99.90;;;;;;5017584;28;20181;-84
2023/04/25 00:34:49;;;;;;;9.77;5.70;;;12.20;99.90;;;;;;5017327;28;20604;-83
2023/04/25 00:37:15;;;;;;;11.52;5.32;;;12.10;99.90;;;;;;4999822;28;20275;-83
2023/04/25 00:39:41;;;;;;;8.57;6.13;;;12.10;99.90;;;;;;5033829;28;20181;-83
2023/04/25 00:42:08;;;;;;;9.70;5.80;;;12.10;99.90;;;;;;5033438;28;20191;-84
2023/04/25 00:44:35;;;;;;;8.85;5.35;;;12.10;99.90;;;;;;5033654;28;20173;-84
2023/04/25 00:47:02;;;;;;;12.10;5.47;;;12.10;99.90;;;;;;5033311;28;20266;-84
2023/04/25 00:49:27;;;;;;;9.55;5.72;;;12.10;99.90;;;;;;5034687;28;20191;-83
2023/04/25 00:51:53;;;;;;;8.45;5.47;;;12.20;99.90;;;;;;5033411;28;20176;-84
2023/04/25 00:54:19;;;;;;;9.15;4.80;;;11.00;99.90;;;;;;5017171;28;20623;-84
2023/04/25 00:56:45;;;;;;;9.52;6.03;;;12.20;99.90;;;;;;5034495;28;20177;-84
2023/04/25 00:59:11;;;;;;;9.85;5.57;;;12.20;99.90;;;;;;5032968;28;20191;-84
2023/04/25 01:01:38;;;;;;;7.35;5.15;;;12.20;99.90;;;;;;5034365;28;20184;-84
2023/04/25 01:04:04;;;;;;;8.02;5.28;;;12.20;99.90;;;;;;5033001;28;20177;-84
2023/04/25 01:06:31;;;;;;;9.57;5.93;;;12.20;99.90;;;;;;5034465;28;20222;-84
2023/04/25 01:08:58;;;;;;;13.95;6.60;;;12.20;99.90;;;;;;5032951;28;20189;-85
2023/04/25 01:11:23;;;;;;;7.18;4.90;;;12.20;99.90;;;;;;5033159;28;20670;-84
2023/04/25 01:13:49;;;;;;;7.22;5.10;;;12.20;99.90;;;;;;5034350;28;20185;-84
2023/04/25 01:16:15;;;;;;;11.25;5.70;;;12.10;99.90;;;;;;5032847;28;20180;-84
2023/04/25 01:18:42;;;;;;;9.70;5.60;;;12.10;99.90;;;;;;5016599;28;20188;-83
2023/04/25 01:21:12;;;;;;;10.95;5.72;;;12.10;99.90;;;;;;5032433;28;20191;-84
2023/04/25 01:23:40;;;;;;;8.82;5.80;;;12.00;99.90;;;;;;5032774;28;20192;-84
2023/04/25 01:26:08;;;;;;;11.10;6.28;;;12.00;99.90;;;;;;5033923;28;20220;-84
2023/04/25 01:28:34;;;;;;;10.73;6.25;;;11.90;99.90;;;;;;5033564;28;20239;-84
2023/04/25 01:31:01;;;;;;;8.85;5.80;;;11.90;99.90;;;;;;5033889;28;20191;-84
2023/04/25 01:33:27;;;;;;;9.88;5.63;;;11.80;99.90;;;;;;5032838;28;20224;-84
2023/04/25 01:35:52;;;;;;;9.30;5.82;;;11.80;99.90;;;;;;5033757;28;20180;-84
2023/04/25 01:38:18;;;;;;;9.45;5.63;;;11.80;99.90;;;;;;5032710;28;20189;-84
2023/04/25 01:40:46;;;;;;;10.90;6.43;;;11.80;99.90;;;;;;5032586;28;20279;-84
2023/04/25 01:43:14;;;;;;;9.00;5.50;;;11.80;99.90;;;;;;5033590;28;20164;-84
2023/04/25 01:45:41;;;;;;;11.88;6.03;;;11.70;99.90;;;;;;5033423;28;20615;-83
2023/04/25 01:48:08;;;;;;;9.68;5.95;;;11.70;99.90;;;;;;5033375;28;20196;-85
2023/04/25 01:50:34;;;;;;;11.35;6.47;;;11.60;99.90;;;;;;5015952;28;20181;-84
2023/04/25 01:53:01;;;;;;;10.20;6.43;;;;;;;;;;5016010;28;20189;-84
2023/04/25 01:55:27;;;;;;;13.93;6.07;;;11.60;99.90;;;;;;5032567;28;20181;-84
2023/04/25 01:57:53;;;;;;;9.52;5.88;;;11.60;99.90;;;;;;5032351;28;20647;-84
2023/04/25 02:00:18;;;;;;;8.82;5.90;;;11.50;99.90;;;;;;5032139;28;20187;-84
2023/04/25 02:02:44;;;;;;;9.65;6.28;;;11.60;99.90;;;;;;5016018;28;20216;-84
2023/04/25 02:05:10;;;;;;;8.68;5.75;;;11.60;99.90;;;;;;5033273;28;20622;-83
2023/04/25 02:07:35;;;;;;;8.45;5.55;;;11.60;99.90;;;;;;5033396;28;20532;-83
2023/04/25 02:10:01;;;;;;;11.23;6.43;;;11.50;99.90;;;;;;5033375;28;20187;-84
2023/04/25 02:12:28;;;;;;;9.05;6.32;;;11.50;99.90;;;;;;5031832;28;20187;-84
2023/04/25 02:14:54;;;;;;;9.90;5.88;;;11.50;99.90;;;;;;5032018;28;20180;-84
2023/04/25 02:17:21;;;;;;;9.15;5.63;;;11.50;99.90;;;;;;5015559;28;20185;-84
2023/04/25 02:19:47;;;;;;;9.70;6.93;;;11.40;99.90;;;;;;5033382;28;20180;-84
2023/04/25 02:22:13;;;;;;;11.65;6.55;;;11.40;99.90;;;;;;5031573;28;20597;-84
2023/04/25 02:24:39;;;;;;;10.93;6.25;;;11.40;99.90;;;;;;5033008;28;20180;-84
2023/04/25 02:27:05;;;;;;;9.35;5.97;;;;;;;;;;5032465;28;20236;-84
2023/04/25 02:29:31;;;;;;;10.85;5.40;;;11.20;99.90;;;;;;5031377;28;20180;-84
2023/04/25 02:31:57;;;;;;;12.48;5.95;;;11.60;99.90;;;;;;5032137;28;20226;-84
2023/04/25 02:34:23;;;;;;;7.72;5.32;;;;;;;;;;5030934;28;20197;-84
2023/04/25 02:36:52;;;;;;;12.00;6.97;;;11.20;99.90;;;;;;5031965;28;20188;-84
2023/04/25 02:39:18;;;;;;;9.45;5.95;;;11.40;99.90;;;;;;5030881;28;20647;-84
2023/04/25 02:41:44;;;;;;;13.15;5.82;;;11.20;99.90;;;;;;5031104;28;20214;-84
2023/04/25 02:44:10;;;;;;;9.55;6.20;;;;;;;;;;5030729;28;20218;-84
2023/04/25 02:46:35;;;;;;;13.25;6.50;;;11.00;99.90;;;;;;5030776;28;20199;-84
2023/04/25 02:49:01;;;;;;;9.73;5.85;;;;;;;;;;5032235;28;20184;-84
2023/04/25 02:51:27;;;;;;;17.90;6.40;;;11.10;99.90;;;;;;5030613;28;20185;-84
2023/04/25 02:53:53;;;;;;;13.43;6.72;;;11.10;99.90;;;;;;5014356;28;20271;-83
2023/04/25 02:56:18;;;;;;;14.45;7.57;;;10.90;99.90;;;;;;5013877;28;20306;-84
2023/04/25 02:58:44;;;;;;;9.55;5.90;;;11.00;99.90;;;;;;5032231;28;20183;-83
2023/04/25 03:01:10;;;;;;;10.40;5.80;;;11.00;99.90;;;;;;5032411;28;20515;-84
2023/04/25 03:03:36;;;;;;;10.40;6.30;;;;;;;;;;5017787;28;20190;-84
2023/04/25 03:06:02;;;;;;;17.23;6.72;;;11.40;99.90;;;;;;5034994;28;20600;-83
2023/04/25 03:08:32;;;;;;;9.63;6.25;;;10.90;99.90;;;;;;5017422;28;20217;-84
2023/04/25 03:10:58;;;;;;;9.98;5.80;;;11.10;99.90;;;;;;5034326;28;20259;-83
2023/04/25 03:13:24;;;;;;;11.32;7.50;;;11.40;99.90;;;;;;5017305;28;20195;-84
2023/04/25 03:15:50;;;;;;;11.75;6.85;;;11.00;99.90;;;;;;5035660;28;20530;-83
2023/04/25 03:18:16;;;;;;;13.63;7.82;;;;;;;;;;5034710;28;20184;-84
2023/04/25 03:20:41;;;;;;;12.20;7.13;;;11.30;99.90;;;;;;5034871;28;20195;-84
2023/04/25 03:23:07;;;;;;;12.95;7.47;;;;;;;;;;5033945;28;20698;-84
2023/04/25 03:25:33;;;;;;;13.23;8.45;;;11.00;99.90;;;;;;4989460;28;1269144;-84
2023/04/25 03:27:59;;;;;;;12.13;7.90;;;;;;;;;;5034651;28;20216;-84
2023/04/25 03:30:25;;;;;;;13.23;7.40;;;11.10;99.90;;;;;;5035898;28;20184;-84
2023/04/25 03:32:51;;;;;;;14.50;8.02;;;;;;;;;;5018532;28;20189;-84
2023/04/25 03:35:17;;;;;;;13.75;7.78;;;11.10;99.90;;;;;;5034858;28;20713;-84
2023/04/25 03:37:45;;;;;;;13.90;8.38;;;;;;;;;;5034829;28;20279;-83
2023/04/25 03:40:11;;;;;;;17.50;10.23;;;11.00;99.90;;;;;;5018388;28;20184;-84
2023/04/25 03:42:37;;;;;;;18.00;10.07;;;;;;;;;;5034572;28;20179;-84
2023/04/25 03:45:04;;;;;;;16.42;10.30;;;11.20;99.90;;;;;;5032014;28;20187;-84
2023/04/25 03:47:30;;;;;;;17.00;8.73;;;10.70;99.90;;;;;;5013966;28;20312;-84
2023/04/25 03:49:56;;;;;;;11.05;7.18;;;;;;;;;;5015298;28;20637;-86
2023/04/25 03:52:22;;;;;;;13.63;8.18;;;;;;;;;;5013671;28;20231;-86
2023/04/25 03:54:48;;;;;;;25.60;16.38;;;;;;;;;;5014294;28;20683;-83
2023/04/25 03:57:14;;;;;;;16.38;9.88;;;;;;;;;;5014328;28;20189;-85
2023/04/25 03:59:39;;;;;;;23.35;13.05;;;10.90;99.90;;;;;;5015492;28;20192;-84
2023/04/25 04:02:05;;;;;;;21.58;13.32;;;10.70;99.90;;;;;;4998060;28;20553;-84
2023/04/25 04:04:31;;;;;;;15.75;8.32;;;;;;;;;;4981795;28;20181;-83
2023/04/25 04:06:57;;;;;;;12.68;7.75;;;;;;;;;;5013306;28;20683;-84
2023/04/25 04:09:23;;;;;;;13.23;9.10;;;10.70;99.90;;;;;;5013209;28;20184;-85
2023/04/25 04:11:49;;;;;;;20.58;13.90;;;;;;;;;;5014941;28;20636;-84
2023/04/25 04:14:15;;;;;;;15.90;8.38;;;10.70;99.90;;;;;;5022881;28;20557;-85
2023/04/25 04:16:41;;;;;;;10.57;6.60;;;;;;;;;;5025606;28;20180;-84
2023/04/25 04:19:06;;;;;;;11.73;6.68;;;10.90;99.90;;;;;;5023639;28;20182;-84
2023/04/25 04:21:33;;;;;;;10.63;6.65;;;;;;;;;;5028871;28;20181;-84
2023/04/25 04:23:59;;;;;;;11.85;7.45;;;11.20;99.90;;;;;;5038124;28;20181;-85
2023/04/25 04:26:25;;;;;;;12.95;7.00;;;11.30;99.90;;;;;;5033035;28;20228;-84
2023/04/25 04:28:53;;;;;;;9.32;6.40;;;11.70;99.90;;;;;;5034577;28;20181;-86
2023/04/25 04:31:20;;;;;;;8.10;5.63;;;;;;;;;;5034453;28;20181;-86
2023/04/25 04:33:46;;;;;;;9.77;6.20;;;11.40;99.90;;;;;;5034447;28;20232;-86
2023/04/25 04:36:12;;;;;;;9.90;6.30;;;11.40;99.90;;;;;;5018784;28;20243;-85
2023/04/25 04:38:38;;;;;;;10.75;6.43;;;11.70;99.90;;;;;;5013929;28;20193;-86
2023/04/25 04:41:04;;;;;;;10.30;6.80;;;11.80;99.90;;;;;;5014579;28;20260;-85
2023/04/25 04:43:32;;;;;;;9.52;6.10;;;;;;;;;;5013470;28;20204;-85
2023/04/25 04:45:58;;;;;;;10.45;5.38;;;11.80;99.90;;;;;;5016757;28;20197;-85
2023/04/25 04:48:24;;;;;;;11.38;6.38;;;11.90;99.90;;;;;;5014633;28;20362;-85
2023/04/25 04:50:50;;;;;;;9.82;5.85;;;12.20;99.90;;;;;;5015407;28;20608;-85
2023/04/25 04:53:16;;;;;;;14.85;6.57;;;;;;;;;;4998734;28;20227;-85
2023/04/25 04:55:42;;;;;;;13.15;6.43;;;12.10;99.90;;;;;;5013852;28;20184;-85
2023/04/25 04:58:08;;;;;;;9.45;6.10;;;12.20;99.90;;;;;;4999570;28;20539;-84
2023/04/25 05:00:34;;;;;;;14.13;7.40;;;11.70;99.90;;;;;;5013299;28;20277;-84
2023/04/25 05:03:00;;;;;;;11.57;6.30;;;;;;;;;;5012033;28;20198;-85
2023/04/25 05:05:26;;;;;;;11.50;6.65;;;11.90;99.90;;;;;;4978043;28;20182;-85
2023/04/25 05:07:52;;;;;;;13.48;7.03;;;;;;;;;;4994875;28;20256;-85
2023/04/25 05:10:20;;;;;;;19.80;9.40;;;12.00;99.90;;;;;;4997344;28;20185;-86
2023/04/25 05:12:46;;;;;;;12.13;7.03;;;;;;;;;;5011528;28;20545;-85
2023/04/25 05:15:12;;;;;;;10.02;6.43;;;;;;;;;;5012613;28;20182;-86
2023/04/25 05:17:38;;;;;;;12.95;7.10;;;12.00;99.90;;;;;;5012486;28;20197;-84
2023/04/25 05:20:11;;;;;;;13.32;7.13;;;11.90;99.90;;;;;;5013766;28;20577;-83
2023/04/25 05:22:37;;;;;;;12.07;6.65;;;12.20;99.90;;;;;;4987053;28;20217;-87
2023/04/25 05:25:03;;;;;;;11.40;6.82;;;12.30;99.90;;;;;;4998075;28;20178;-86
2023/04/25 05:27:29;;;;;;;11.27;6.45;;;;;;;;;;5010749;28;20293;-86
2023/04/25 05:29:55;;;;;;;10.43;5.53;;;12.10;99.90;;;;;;5011381;28;20193;-86
2023/04/25 05:32:20;;;;;;;8.25;4.90;;;12.20;99.90;;;;;;4992459;28;20233;-87
2023/04/25 05:34:46;;;;;;;11.98;5.57;;;;;;;;;;4989898;28;20251;-86
2023/04/25 05:37:12;;;;;;;15.60;7.70;;;12.50;99.90;;;;;;5024410;28;20470;-86
2023/04/25 05:39:38;;;;;;;11.32;5.80;;;;;;;;;;5023272;28;20247;-85
2023/04/25 05:42:04;;;;;;;7.97;5.35;;;12.10;99.90;;;;;;5028163;28;20211;-86
2023/04/25 05:44:30;;;;;;;10.27;5.40;;;12.20;99.90;;;;;;5006758;28;21471;-87
2023/04/25 05:46:56;;;;;;;9.60;5.15;;;11.90;99.90;;;;;;4993180;28;20721;-84
2023/04/25 05:49:22;;;;;;;10.20;5.90;;;12.30;99.90;;;;;;5009848;28;20193;-84
2023/04/25 05:51:48;;;;;;;7.38;4.72;;;;;;;;;;5009023;28;20181;-85
2023/04/25 05:54:14;;;;;;;11.52;5.00;;;;;;;;;;5003946;28;20215;-84
2023/04/25 05:56:39;;;;;;;10.13;4.88;;;12.10;99.90;;;;;;5009997;28;20181;-85
2023/04/25 05:59:06;;;;;;;7.55;4.95;;;;;;;;;;5010221;28;20652;-88
2023/04/25 06:01:32;;;;;;;12.25;4.60;;;;;;;;;;5010523;28;20647;-86
2023/04/25 06:04:05;;;;;;;9.07;5.45;;;12.20;99.90;;;;;;5030373;28;20208;-86
2023/04/25 06:06:31;;;;;;;9.15;5.50;;;12.30;99.90;;;;;;5006864;28;20181;-85
2023/04/25 06:08:58;;;;;;;10.35;5.10;;;12.10;99.90;;;;;;4997066;28;20544;-86
2023/04/25 06:11:25;;;;;;;11.50;5.00;;;12.30;99.90;;;;;;5013302;28;20197;-84
2023/04/25 06:13:51;;;;;;;13.50;5.90;;;12.30;99.90;;;;;;5009650;28;20196;-83
2023/04/25 06:16:17;;;;;;;8.13;4.93;;;;;;;;;;4979278;28;20229;-84
2023/04/25 06:18:43;;;;;;;10.02;5.30;;;12.20;99.90;;;;;;5010472;28;20185;-83
2023/04/25 06:21:09;;;;;;;8.25;5.05;;;;;;;;;;5010926;28;20256;-83
2023/04/25 06:23:35;;;;;;;8.63;5.03;;;;;;;;;;4989488;28;20702;-84
2023/04/25 06:26:02;;;;;;;9.50;5.07;;;;;;;;;;5002629;28;20236;-85
2023/04/25 06:28:28;;;;;;;13.30;5.60;;;;;;;;;;5011051;28;20205;-85
2023/04/25 06:30:54;;;;;;;8.23;5.25;;;12.70;99.90;;;;;;5009038;28;20613;-86
2023/04/25 06:33:21;;;;;;;8.85;5.88;;;;;;;;;;5002397;28;20257;-83
2023/04/25 06:35:47;;;;;;;7.78;5.60;;;12.00;99.90;;;;;;5031277;28;20186;-85
2023/04/25 06:38:13;;;;;;;11.25;5.20;;;;;;;;;;5003094;28;20209;-85
2023/04/25 06:40:39;;;;;;;9.00;5.75;;;12.40;99.90;;;;;;5016413;28;20260;-85
2023/04/25 06:43:05;;;;;;;11.93;5.20;;;12.40;99.90;;;;;;5016879;28;20281;-85
2023/04/25 06:45:30;;;;;;;9.85;5.38;;;12.40;99.90;;;;;;5000635;28;20181;-86
2023/04/25 06:47:56;;;;;;;8.68;4.75;;;12.40;99.90;;;;;;4978978;28;20213;-86
2023/04/25 06:50:22;;;;;;;7.43;4.13;;;;;;;;;;5014555;28;20248;-85
2023/04/25 06:52:48;;;;;;;7.00;4.85;;;12.60;99.90;;;;;;5000683;28;20718;-86
2023/04/25 06:55:17;;;;;;;6.47;4.53;;;12.50;99.90;;;;;;5011415;28;20209;-87
2023/04/25 06:57:42;;;;;;;8.00;5.00;;;12.40;99.90;;;;;;5009173;28;20212;-87
2023/04/25 07:00:09;;;;;;;9.90;5.18;;;12.50;99.90;;;;;;5009654;28;20185;-87
2023/04/25 07:02:35;;;;;;;9.10;5.55;;;12.70;99.90;;;;;;5010319;28;20235;-88
2023/04/25 07:05:03;;;;;;;8.35;4.75;;;12.20;99.90;;;;;;5028019;28;20185;-87
2023/04/25 07:07:30;;;;;;;9.10;5.20;;;12.30;99.90;;;;;;5029042;28;20678;-88
2023/04/25 07:09:57;;;;;;;8.27;4.57;;;;;;;;;;5011735;28;20208;-88
2023/04/25 07:12:23;;;;;;;6.07;4.10;;;;;;;;;;5027260;28;20216;-88
2023/04/25 07:14:49;;;;;;;7.68;4.65;;;;;;;;;;5029437;28;20181;-90
2023/04/25 07:17:16;;;;;;;7.93;5.00;;;;;;;;;;5019586;28;20204;-89
2023/04/25 07:19:43;;;;;;;6.18;4.22;;;;;;;;;;5031477;28;20191;-89
2023/04/25 07:22:09;;;;;;;6.70;4.20;;;11.80;99.90;;;;;;5009539;28;20663;-89
2023/04/25 07:24:35;;;;;;;8.70;5.50;;;;;;;;;;5009780;28;20181;-88
2023/04/25 07:27:02;;;;;;;7.32;4.38;;;;;;;;;;5024642;28;20641;-85
2023/04/25 07:29:28;;;;;;;9.07;4.78;;;11.80;99.90;;;;;;5013354;28;20204;-89
2023/04/25 07:31:54;;;;;;;8.07;4.45;;;12.00;99.90;;;;;;5014393;28;20240;-86
2023/04/25 07:34:19;;;;;;;10.77;5.13;;;11.30;99.90;;;;;;5014255;28;20186;-88
2023/04/25 07:36:45;;;;;;;10.70;5.18;;;;;;;;;;5011250;28;20558;-91
2023/04/25 07:39:11;;;;;;;7.60;4.90;;;11.90;99.90;;;;;;5011211;28;20257;-88
2023/04/25 07:41:37;;;;;;;11.25;4.45;;;;;;;;;;5008722;28;20203;-89
2023/04/25 07:44:03;;;;;;;5.38;3.80;;;11.90;99.90;;;;;;5010036;28;20186;-90
2023/04/25 07:46:29;;;;;;;6.27;4.10;;;;;;;;;;5009471;28;20481;-87
2023/04/25 07:48:54;;;;;;;6.35;4.10;;;12.00;99.90;;;;;;5013416;28;20320;-88
2023/04/25 07:51:22;;;;;;;9.80;3.97;;;;;;;;;;5014752;28;20185;-88
2023/04/25 07:53:47;;;;;;;6.72;3.90;;;12.00;99.90;;;;;;5009502;28;20186;-88
2023/04/25 07:56:13;;;;;;;8.43;4.97;;;;;;;;;;5007622;28;20189;-90
2023/04/25 07:58:39;;;;;;;6.55;4.90;;;12.10;99.90;;;;;;4994549;28;20648;-89
2023/04/25 08:01:05;;;;;;;5.57;3.92;;;;;;;;;;5000189;28;20189;-88
2023/04/25 08:03:31;;;;;;;5.65;4.03;;;12.00;99.90;;;;;;5000359;28;20178;-90
2023/04/25 08:05:56;;;;;;;8.57;3.53;;;12.30;99.90;;;;;;5011174;28;20854;-89
2023/04/25 08:08:22;;;;;;;5.50;3.53;;;;;;;;;;5014332;28;20205;-87
2023/04/25 08:10:48;;;;;;;5.88;3.40;;;12.40;99.90;;;;;;5012652;28;20209;-91
2023/04/25 08:13:14;;;;;;;4.95;3.53;;;;;;;;;;5006187;28;20291;-88
2023/04/25 08:15:40;;;;;;;4.47;3.35;;;12.10;99.90;;;;;;5001895;28;20189;-88
2023/04/25 08:18:06;;;;;;;4.55;2.83;;;12.00;99.90;;;;;;5012555;28;20185;-87
2023/04/25 08:20:32;;;;;;;5.35;3.42;;;;;;;;;;5013872;28;20200;-87
2023/04/25 08:22:57;;;;;;;3.97;3.45;;;12.10;99.90;;;;;;5013916;28;20185;-86
2023/04/25 08:25:23;;;;;;;4.40;3.40;;;12.20;99.90;;;;;;5014993;28;20237;-87
2023/04/25 08:27:48;;;;;;;4.45;2.90;;;12.20;99.90;;;;;;4998226;28;20255;-87
2023/04/25 08:30:14;;;;;;;4.63;2.92;;;12.00;99.90;;;;;;5014697;28;20173;-87
2023/04/25 08:32:40;;;;;;;3.70;2.97;;;;;;;;;;5016377;28;20705;-90
2023/04/25 08:35:06;;;;;;;4.57;3.03;;;12.10;99.90;;;;;;5029338;28;20188;-88
2023/04/25 08:37:32;;;;;;;4.03;3.00;;;12.10;99.90;;;;;;5028115;28;20216;-87
2023/04/25 08:39:58;;;;;;;6.80;2.53;;;11.70;99.90;;;;;;4998694;28;20644;-87
2023/04/25 08:42:26;;;;;;;6.57;3.15;;;11.80;99.90;;;;;;5015705;28;20256;-88
2023/04/25 08:44:54;;;;;;;4.30;3.03;;;12.20;99.90;;;;;;5017331;28;20272;-88
2023/04/25 08:47:22;;;;;;;4.95;3.17;;;12.20;99.90;;;;;;5016624;28;20205;-90
2023/04/25 08:49:49;;;;;;;5.25;3.50;;;11.60;99.90;;;;;;5016009;28;20532;-86
2023/04/25 08:52:19;;;;;;;6.43;3.30;;;11.80;99.90;;;;;;5014349;28;20176;-91
2023/04/25 08:54:48;;;;;;;5.35;3.47;;;12.10;99.90;;;;;;5016369;28;20617;-86
2023/04/25 08:57:15;;;;;;;5.88;3.67;;;11.70;99.90;;;;;;5015513;28;20173;-90
2023/04/25 08:59:45;;;;;;;5.60;3.70;;;11.90;99.90;;;;;;5015608;28;20177;-91
2023/04/25 09:02:14;;;;;;;3.92;3.15;;;11.60;99.90;;;;;;5015471;28;20646;-86
2023/04/25 09:04:40;;;;;;;7.38;3.78;;;11.70;99.90;;;;;;5014048;28;20177;-86
2023/04/25 09:07:06;;;;;;;3.97;3.00;;;11.80;99.90;;;;;;5014168;28;20209;-86
2023/04/25 09:09:32;;;;;;;2.90;2.60;;;;;;;;;;4998089;28;20185;-87
2023/04/25 09:11:59;;;;;;;6.53;3.70;;;;;;;;;;4998845;28;20192;-87
2023/04/25 09:14:25;;;;;;;4.05;3.28;;;11.60;99.90;;;;;;5015281;28;20616;-87
2023/04/25 09:17:02;;;;;;;4.65;3.30;;;11.70;99.90;;;;;;4982122;28;20658;-86
2023/04/25 09:19:35;;;;;;;5.50;3.85;;;11.60;99.90;;;;;;5014871;28;20169;-87
2023/04/25 09:22:03;;;;;;;6.88;3.85;;;11.60;99.90;;;;;;5014437;28;20157;-86
2023/04/25 09:24:39;;;;;;;7.57;4.07;;;12.20;99.90;;;;;;5015368;28;20631;-88
2023/04/25 09:27:10;;;;;;;7.97;4.15;;;11.60;99.90;;;;;;5015064;28;20233;-87
2023/04/25 09:29:37;;;;;;;6.45;4.10;;;11.60;99.90;;;;;;5013181;28;20177;-87
2023/04/25 09:32:19;;;;;;;7.70;3.92;;;11.90;99.90;;;;;;5014360;28;20231;-87
2023/04/25 09:34:56;;;;;;;4.90;3.17;;;11.60;99.90;;;;;;5015059;28;20169;-87
2023/04/25 09:37:26;;;;;;;6.85;4.18;;;12.40;99.90;;;;;;5014905;28;20646;-89
2023/04/25 09:40:02;;;;;;;8.13;4.47;;;11.60;99.90;;;;;;5013434;28;20182;-85
2023/04/25 09:42:31;;;;;;;7.55;4.88;;;12.40;99.90;;;;;;5014984;28;20177;-85
2023/04/25 09:44:57;;;;;;;6.45;4.57;;;11.90;99.90;;;;;;5016879;28;20192;-89
2023/04/25 09:47:24;;;;;;;9.60;4.20;;;12.10;99.90;;;;;;5002829;28;20217;-86
2023/04/25 09:49:51;;;;;;;6.88;4.72;;;12.00;99.90;;;;;;5003180;28;20328;-88
2023/04/25 09:52:25;;;;;;;6.45;4.50;;;11.90;99.90;;;;;;5019340;28;20232;-91
2023/04/25 09:54:51;;;;;;;12.90;4.70;;;11.80;99.90;;;;;;5021394;28;20177;-88
2023/04/25 09:57:19;;;;;;;9.85;5.50;;;12.20;99.90;;;;;;5015262;28;20185;-87
2023/04/25 09:59:53;;;;;;;8.75;5.28;;;12.20;99.90;;;;;;5012562;28;20179;-88
2023/04/25 10:02:25;;;;;;;7.72;4.82;;;12.30;99.90;;;;;;5013942;28;20185;-87
2023/04/25 10:04:54;;;;;;;8.65;4.85;;;12.00;99.90;;;;;;5013243;28;20173;-88
2023/04/25 10:07:25;;;;;;;8.90;5.30;;;11.90;99.90;;;;;;5014523;28;20204;-87
2023/04/25 10:10:03;;;;;;;8.98;5.43;;;12.00;99.90;;;;;;5013172;28;20153;-86
2023/04/25 10:12:31;;;;;;;10.23;5.53;;;12.00;99.90;;;;;;5012507;28;20319;-87
2023/04/25 10:14:58;;;;;;;6.85;4.88;;;12.10;99.90;;;;;;5012401;28;20181;-88
2023/04/25 10:17:26;;;;;;;7.22;4.70;;;11.90;99.90;;;;;;5012606;28;20319;-88
2023/04/25 10:19:54;;;;;;;8.80;4.95;;;12.10;99.90;;;;;;5013175;28;20773;-87
2023/04/25 10:22:38;;;;;;;10.75;6.68;;;12.10;99.90;;;;;;5012252;28;20211;-87
2023/04/25 10:25:04;;;;;;;11.43;5.88;;;12.00;99.90;;;;;;5014012;28;20268;-87
2023/04/25 10:27:31;;;;;;;12.30;6.93;;;12.20;99.90;;;;;;5014068;28;20221;-89
2023/04/25 10:30:14;;;;;;;10.93;6.25;;;12.00;99.90;;;;;;5013535;28;20234;-89
2023/04/25 10:32:42;;;;;;;7.57;4.80;;;12.00;99.90;;;;;;5012610;28;20220;-86
2023/04/25 10:35:18;;;;;;;9.48;6.03;;;12.10;99.90;;;;;;5013397;28;20545;-88
2023/04/25 10:38:10;;;;;;;9.82;5.70;;;11.90;99.90;;;;;;5013978;28;20176;-88
2023/04/25 10:40:36;;;;;;;5.97;3.88;;;11.90;99.90;;;;;;5012693;28;20711;-88
2023/04/25 10:43:39;;;;;;;7.07;4.53;;;12.10;99.90;;;;;;5013918;28;20177;-89
2023/04/25 10:46:28;;;;;;;6.93;4.20;;;12.00;99.90;;;;;;5013540;28;20223;-88
2023/04/25 10:48:55;;;;;;;11.60;6.18;;;12.10;99.90;;;;;;5012147;28;20213;-88
2023/04/25 10:51:33;;;;;;;9.60;6.13;;;12.00;99.90;;;;;;5013080;28;20514;-88
2023/04/25 10:54:04;;;;;;;6.43;4.68;;;12.10;99.90;;;;;;5013853;28;20177;-89
2023/04/25 10:56:32;;;;;;;8.23;5.03;;;12.40;99.90;;;;;;4996146;28;20231;-88
2023/04/25 10:59:11;;;;;;;5.55;4.18;;;12.00;99.90;;;;;;5013241;28;20529;-88
2023/04/25 11:01:42;;;;;;;6.68;4.22;;;11.90;99.90;;;;;;5013586;28;20165;-88
2023/04/25 11:04:22;;;;;;;8.32;4.50;;;12.00;99.90;;;;;;5013798;28;20643;-88
2023/04/25 11:07:06;;;;;;;6.30;4.32;;;12.40;99.90;;;;;;5013246;28;20188;-87
2023/04/25 11:09:37;;;;;;;5.97;3.97;;;11.90;99.90;;;;;;5012563;28;20701;-92
2023/04/25 11:12:04;;;;;;;9.25;5.47;;;12.30;99.90;;;;;;5013509;28;20180;-91
2023/04/25 11:14:30;;;;;;;9.43;5.85;;;11.90;99.90;;;;;;5013309;28;20181;-89
2023/04/25 11:16:57;;;;;;;23.45;9.35;;;12.20;99.90;;;;;;5013356;28;20655;-89
2023/04/25 11:19:24;;;;;;;10.07;5.35;;;12.40;99.90;;;;;;5013386;28;20181;-88
2023/04/25 11:21:50;;;;;;;8.60;5.10;;;12.30;99.90;;;;;;4997698;28;20204;-89
2023/04/25 11:24:17;;;;;;;10.82;5.22;;;12.40;99.90;;;;;;5015489;28;20220;-89
2023/04/25 11:26:43;;;;;;;13.15;5.80;;;12.10;99.90;;;;;;4999321;28;20233;-89
2023/04/25 11:29:09;;;;;;;15.00;5.95;;;12.30;99.90;;;;;;4982927;28;20181;-90
2023/04/25 11:31:35;;;;;;;8.65;4.50;;;12.00;99.90;;;;;;4999438;28;20232;-89
2023/04/25 11:34:02;;;;;;;18.15;8.80;;;;;;;;;;5015674;28;20193;-89
2023/04/25 11:36:28;;;;;;;13.77;7.90;;;12.50;99.90;;;;;;5015721;28;20191;-89
2023/04/25 11:38:54;;;;;;;16.08;7.85;;;;;;;;;;4999343;28;20272;-89
2023/04/25 11:41:21;;;;;;;19.88;8.80;;;12.40;99.90;;;;;;5015184;28;20177;-90
2023/04/25 11:43:48;;;;;;;12.05;6.55;;;12.40;99.90;;;;;;5016667;28;20209;-88
2023/04/25 11:46:15;;;;;;;24.20;12.70;;;12.50;99.90;;;;;;5015586;28;20181;-87
2023/04/25 11:48:42;;;;;;;12.15;7.63;;;12.90;99.90;;;;;;4999262;28;20205;-90
2023/04/25 11:51:08;;;;;;;8.13;4.78;;;;;;;;;;5016370;28;20701;-89
2023/04/25 11:53:35;;;;;;;6.70;4.50;;;12.10;99.90;;;;;;5015027;28;20544;-89
2023/04/25 11:56:01;;;;;;;7.15;3.53;;;12.30;99.90;;;;;;5016579;28;20181;-89
2023/04/25 11:58:27;;;;;;;3.75;3.10;;;11.70;99.90;;;;;;5014880;28;20184;-86
2023/04/25 12:00:53;;;;;;;5.32;2.50;;;11.30;99.90;;;;;;5015227;28;20185;-89
2023/04/25 12:03:20;;;;;;;3.50;2.50;;;11.30;99.90;;;;;;5021632;28;20264;-88
2023/04/25 12:05:46;;;;;;;2.90;2.63;;;11.00;99.90;;;;;;5024149;28;20184;-89
2023/04/25 12:08:13;;;;;;;3.92;2.65;;;10.80;99.90;;;;;;5026893;28;20674;-90
2023/04/25 12:10:40;;;;;;;3.67;2.70;;;10.70;99.90;;;;;;5022528;28;20181;-89
2023/04/25 12:13:26;;;;;;;5.50;2.65;;;10.90;99.90;;;;;;5015663;28;20178;-89
2023/04/25 12:15:54;;;;;;;3.72;2.53;;;10.50;99.90;;;;;;5016466;28;20173;-88
2023/04/25 12:18:25;;;;;;;4.28;3.05;;;10.70;99.90;;;;;;5016807;28;20188;-89
2023/04/25 12:20:53;;;;;;;4.28;2.53;;;9.90;99.90;;;;;;5016421;28;20573;-92
2023/04/25 12:23:26;;;;;;;4.18;2.72;;;10.30;99.90;;;;;;5017119;28;20231;-88
2023/04/25 12:25:52;;;;;;;3.13;2.78;;;10.40;99.90;;;;;;5014858;28;20331;-88
2023/04/25 12:28:27;;;;;;;7.13;3.22;;;10.30;99.90;;;;;;5017342;28;20287;-88
2023/04/25 12:31:00;;;;;;;4.15;3.08;;;10.30;99.90;;;;;;5016684;28;20176;-88
2023/04/25 12:33:31;;;;;;;5.88;3.80;;;10.10;99.90;;;;;;5015154;28;20188;-87
2023/04/25 12:35:58;;;;;;;4.78;3.72;;;10.40;99.90;;;;;;5015237;28;20181;-87
2023/04/25 12:38:30;;;;;;;4.68;3.05;;;10.10;99.90;;;;;;5015293;28;20185;-88
2023/04/25 12:40:57;;;;;;;4.88;2.95;;;10.50;99.90;;;;;;5017392;28;20174;-87
2023/04/25 12:43:23;;;;;;;4.72;3.25;;;10.20;99.90;;;;;;4998854;28;20173;-88
2023/04/25 12:45:55;;;;;;;7.50;4.32;;;9.90;99.90;;;;;;5014148;28;20295;-87
2023/04/25 12:48:22;;;;;;;6.90;4.18;;;10.30;99.90;;;;;;5014373;28;20243;-88
2023/04/25 12:50:49;;;;;;;5.95;3.92;;;10.20;99.90;;;;;;5015463;28;20188;-86
2023/04/25 12:53:22;;;;;;;5.53;4.03;;;10.60;99.90;;;;;;5014125;28;20239;-87
2023/04/25 12:55:48;;;;;;;5.55;4.10;;;10.20;99.90;;;;;;5014315;28;20176;-87
2023/04/25 12:58:15;;;;;;;7.53;4.40;;;10.40;99.90;;;;;;5015903;28;20605;-87
2023/04/25 13:00:40;;;;;;;13.50;6.90;;;10.60;99.90;;;;;;5033346;28;20584;-88
2023/04/25 13:03:06;;;;;;;6.55;3.92;;;;;;;;;;5033511;28;20172;-88